CYYE

Fort Nelson Airport

Fort Nelson, British Columbia, Canada
METAR CYYE 241200Z 32003KT 3SM -SN FEW025 BKN043 M08/M10 A2975 RMK SF2SC5 SLP101
Observed Flight Rules
Feb-24 @ 12:00 UTC (24 minutes ago) Marginal Visual Flight Rules
Wind Visibility Clouds Conditions
320° at 3 knots 3 miles
  • Few at 2,500' AGL
  • Broken at 4,300' AGL
  • Light Snow
Temperatures Readings
Current -8°C / 18°F
Dewpoint -10°C / 14°F
Humidity 86%
Altimeter 29.75" Hg
Pressure 1010.1 hPa
Elevation 382
METAR CYYE 241200Z 32003KT 3SM -SN FEW025 BKN043 M08/M10 A2975 RMK SF2SC5 SLP101
Observed Flight Rules
Feb-24 @ 12:00 UTC
(24 minutes ago)
MVFR
Wind Visibility
320° at 3 knots 3 miles
Clouds
  • Few at 2,500' AGL
  • Broken at 4,300' AGL
Conditions
  • Light Snow
Temperature Dewpoint
-8°C / 18°F -10°C / 14°F
Humidity Altimeter Pressure
86% 29.75" Hg 1010.1 hPa